Time;durP1;ratioP1;P1;durP2;ratioP2;P2;SDS_P1;SDS_P2;PMS_P1;PMS_P2;Temp;Humidity;BMP_temperature;BMP_pressure;BME280_temperature;BME280_humidity;BME280_pressure;Samples;Min_cycle;Max_cycle;Signal;HPM_P1;HPM_P2
2022/03/05 00:00:31;;;;;;;10.70;3.53;;;;;;;;;;5037718;28;20033;-64
2022/03/05 00:02:57;;;;;;;9.45;3.00;;;;;;;;;;5032350;28;20045;-64
2022/03/05 00:05:24;;;;;;;10.00;3.15;;;;;;;;;;5032813;28;20083;-64
2022/03/05 00:07:50;;;;;;;10.07;2.97;;;;;;;;;;5038306;28;20473;-64
2022/03/05 00:10:18;;;;;;;18.10;3.38;;;;;;;;;;5053189;28;20025;-64
2022/03/05 00:12:45;;;;;;;12.27;2.70;;;;;;;;;;5052871;28;20133;-64
2022/03/05 00:15:11;;;;;;;22.58;3.67;;;;;;;;;;5052898;28;20091;-64
2022/03/05 00:17:37;;;;;;;14.50;3.20;;;;;;;;;;5052894;28;20388;-64
2022/03/05 00:20:04;;;;;;;13.50;3.47;;;;;;;;;;5052118;28;20033;-64
2022/03/05 00:22:30;;;;;;;12.45;3.30;;;;;;;;;;5052603;28;20495;-64
2022/03/05 00:24:57;;;;;;;12.65;3.40;;;;;;;;;;5052516;28;20037;-64
2022/03/05 00:27:24;;;;;;;9.18;2.58;;;;;;;;;;5052932;28;20027;-64
2022/03/05 00:29:50;;;;;;;13.27;3.15;;;;;;;;;;5051075;28;20112;-64
2022/03/05 00:32:16;;;;;;;7.47;2.80;;;;;;;;;;5052502;28;20465;-64
2022/03/05 00:34:43;;;;;;;8.23;2.40;;;;;;;;;;5049725;28;20124;-64
2022/03/05 00:37:10;;;;;;;10.40;3.05;;;;;;;;;;5032524;28;20084;-64
2022/03/05 00:39:38;;;;;;;14.57;4.75;;;;;;;;;;5032802;28;20116;-64
2022/03/05 00:42:05;;;;;;;13.65;4.45;;;;;;;;;;5032574;28;20457;-64
2022/03/05 00:44:31;;;;;;;15.10;4.90;;;;;;;;;;5032573;28;20048;-64
2022/03/05 00:46:57;;;;;;;16.45;4.82;;;;;;;;;;5032243;28;20025;-64
2022/03/05 00:49:23;;;;;;;13.98;4.55;;;;;;;;;;5031670;28;20029;-64
2022/03/05 00:51:50;;;;;;;13.90;3.78;;;;;;;;;;5031825;28;20405;-64
2022/03/05 00:54:16;;;;;;;9.90;4.45;;;;;;;;;;5031874;28;20036;-64
2022/03/05 00:56:42;;;;;;;17.83;4.60;;;;;;;;;;5032250;28;20029;-64
2022/03/05 00:59:08;;;;;;;12.38;3.13;;;;;;;;;;5031676;28;20037;-64
2022/03/05 01:01:34;;;;;;;15.52;3.40;;;;;;;;;;5031801;28;20030;-64
2022/03/05 01:04:01;;;;;;;15.05;3.22;;;;;;;;;;5051508;28;20397;-64
2022/03/05 01:06:27;;;;;;;12.70;3.55;;;;;;;;;;5055804;28;20055;-64
2022/03/05 01:08:53;;;;;;;9.77;3.17;;;;;;;;;;5055407;28;20542;-64
2022/03/05 01:11:19;;;;;;;9.88;3.47;;;;;;;;;;5055569;28;20021;-64
2022/03/05 01:13:46;;;;;;;14.32;4.18;;;;;;;;;;5055592;28;20047;-64
2022/03/05 01:16:13;;;;;;;11.15;4.20;;;;;;;;;;5055299;28;20043;-64
2022/03/05 01:18:39;;;;;;;14.85;4.10;;;;;;;;;;5055415;28;20036;-64
2022/03/05 01:21:05;;;;;;;12.73;4.15;;;;;;;;;;5055227;28;20025;-64
2022/03/05 01:23:31;;;;;;;18.25;6.03;;;;;;;;;;5055412;28;20158;-64
2022/03/05 01:25:57;;;;;;;17.67;5.93;;;;;;;;;;5055380;28;20108;-64
2022/03/05 01:28:23;;;;;;;16.70;5.07;;;;;;;;;;5054988;28;20021;-64
2022/03/05 01:30:50;;;;;;;14.55;5.35;;;;;;;;;;5055133;28;20492;-64
2022/03/05 01:33:17;;;;;;;18.02;5.28;;;;;;;;;;5054439;28;20035;-64
2022/03/05 01:35:44;;;;;;;15.07;5.30;;;;;;;;;;5055333;28;20021;-64
2022/03/05 01:38:10;;;;;;;15.25;4.90;;;;;;;;;;5055081;28;20447;-64
2022/03/05 01:40:36;;;;;;;21.92;7.65;;;;;;;;;;5055228;28;20138;-64
2022/03/05 01:43:04;;;;;;;12.27;5.45;;;;;;;;;;5054857;28;20018;-64
2022/03/05 01:45:30;;;;;;;17.75;5.70;;;;;;;;;;5055173;28;20489;-64
2022/03/05 01:47:56;;;;;;;15.50;5.10;;;;;;;;;;5054458;28;20055;-64
2022/03/05 01:50:22;;;;;;;15.43;5.15;;;;;;;;;;5054766;28;20036;-64
2022/03/05 01:52:48;;;;;;;9.80;4.28;;;;;;;;;;5054811;28;20017;-64
2022/03/05 01:55:15;;;;;;;11.23;4.65;;;;;;;;;;5054591;28;20082;-64
2022/03/05 01:57:41;;;;;;;12.23;5.15;;;;;;;;;;5054979;28;20503;-64
2022/03/05 02:00:09;;;;;;;11.38;5.10;;;;;;;;;;5052572;28;20029;-64
2022/03/05 02:02:38;;;;;;;12.40;6.05;;;;;;;;;;5034836;28;20057;-64
2022/03/05 02:05:05;;;;;;;15.40;5.75;;;;;;;;;;5034496;28;20041;-64
2022/03/05 02:07:31;;;;;;;9.57;6.30;;;;;;;;;;5046957;28;20116;-64
2022/03/05 02:09:57;;;;;;;12.70;6.07;;;;;;;;;;5052941;28;20021;-64
2022/03/05 02:12:30;;;;;;;13.75;5.22;;;;;;;;;;5054183;28;20048;-64
2022/03/05 02:14:56;;;;;;;;;;;;;;;;;;5054511;28;20028;-64
2022/03/05 02:17:24;;;;;;;18.80;6.00;;;;;;;;;;5053058;28;19924;-64
2022/03/05 02:19:50;;;;;;;9.73;4.78;;;;;;;;;;5043423;28;20100;-64
2022/03/05 02:22:16;;;;;;;18.42;6.65;;;;;;;;;;5054110;28;20090;-64
2022/03/05 02:24:43;;;;;;;8.60;4.70;;;;;;;;;;5054405;28;20461;-64
2022/03/05 02:27:10;;;;;;;12.43;5.15;;;;;;;;;;5053642;28;20036;-64
2022/03/05 02:29:36;;;;;;;11.20;5.03;;;;;;;;;;5053746;28;20013;-64
2022/03/05 02:32:03;;;;;;;9.35;4.22;;;;;;;;;;5054126;28;20029;-64
2022/03/05 02:34:29;;;;;;;11.38;3.92;;;;;;;;;;5054073;28;20119;-64
2022/03/05 02:36:55;;;;;;;8.25;4.90;;;;;;;;;;5054195;28;20032;-64
2022/03/05 02:39:25;;;;;;;7.32;3.63;;;;;;;;;;5052765;28;20067;-64
2022/03/05 02:41:56;;;;;;;9.32;3.97;;;;;;;;;;5038725;28;20033;-64
2022/03/05 02:44:22;;;;;;;7.72;4.03;;;;;;;;;;5047512;28;20025;-64
2022/03/05 02:46:49;;;;;;;10.75;4.05;;;;;;;;;;5042659;28;20014;-64
2022/03/05 02:49:16;;;;;;;7.38;4.57;;;;;;;;;;5037798;28;20025;-64
2022/03/05 02:51:42;;;;;;;9.88;4.28;;;;;;;;;;5051638;28;20486;-64
2022/03/05 02:54:08;;;;;;;13.52;4.72;;;;;;;;;;5045419;28;20037;-64
2022/03/05 02:56:34;;;;;;;12.32;3.90;;;;;;;;;;5051306;28;20029;-64
2022/03/05 02:59:01;;;;;;;10.63;4.68;;;;;;;;;;5042511;28;20030;-64
2022/03/05 03:01:27;;;;;;;8.60;3.97;;;;;;;;;;5044298;28;20118;-64
2022/03/05 03:03:53;;;;;;;13.60;4.43;;;;;;;;;;5051476;28;20036;-64
2022/03/05 03:06:19;;;;;;;8.50;4.22;;;;;;;;;;5051720;28;20110;-64
2022/03/05 03:08:45;;;;;;;7.50;4.18;;;;;;;;;;5051927;28;20017;-64
2022/03/05 03:11:12;;;;;;;9.70;3.53;;;;;;;;;;5036485;28;20022;-64
2022/03/05 03:13:38;;;;;;;7.78;4.03;;;;;;;;;;5050792;28;20079;-64
2022/03/05 03:16:05;;;;;;;10.35;4.63;;;;;;;;;;5044806;28;20037;-64
2022/03/05 03:18:31;;;;;;;9.23;3.47;;;;;;;;;;5033647;28;20030;-64
2022/03/05 03:20:57;;;;;;;8.15;4.63;;;;;;;;;;5034824;28;20029;-64
2022/03/05 03:23:23;;;;;;;8.55;3.53;;;;;;;;;;5035950;28;20038;-64
2022/03/05 03:25:50;;;;;;;6.63;3.70;;;;;;;;;;5044319;28;20029;-64
2022/03/05 03:28:20;;;;;;;5.95;3.30;;;;;;;;;;5050563;28;20436;-64
2022/03/05 03:30:47;;;;;;;9.15;3.80;;;;;;;;;;5053424;28;20032;-64
2022/03/05 03:33:13;;;;;;;13.10;5.20;;;;;;;;;;5053478;28;20025;-64
2022/03/05 03:35:39;;;;;;;10.43;3.88;;;;;;;;;;5035995;28;20029;-64
2022/03/05 03:38:05;;;;;;;14.50;3.50;;;;;;;;;;5033446;28;20025;-64
2022/03/05 03:40:31;;;;;;;10.68;3.78;;;;;;;;;;5049750;28;20488;-64
2022/03/05 03:42:58;;;;;;;9.68;3.20;;;;;;;;;;5052943;28;20029;-64
2022/03/05 03:45:24;;;;;;;7.22;3.42;;;;;;;;;;5036919;28;20033;-64
2022/03/05 03:47:51;;;;;;;8.75;2.90;;;;;;;;;;5032297;28;20087;-64
2022/03/05 03:50:19;;;;;;;7.13;2.80;;;;;;;;;;5032018;28;20036;-64
2022/03/05 03:52:46;;;;;;;5.90;3.20;;;;;;;;;;5041607;28;20025;-64
2022/03/05 03:55:14;;;;;;;8.45;3.08;;;;;;;;;;5035346;28;20038;-64
2022/03/05 03:57:41;;;;;;;11.00;3.30;;;;;;;;;;5032118;28;20021;-64
2022/03/05 04:00:09;;;;;;;5.40;3.13;;;;;;;;;;5032193;28;20088;-64
2022/03/05 04:02:38;;;;;;;4.13;2.75;;;;;;;;;;5032097;28;20033;-64
2022/03/05 04:05:04;;;;;;;5.35;3.10;;;;;;;;;;5032386;28;20025;-64
2022/03/05 04:10:15;;;;;;;7.68;3.65;;;;;;;;;;5031964;28;20544;-64
2022/03/05 04:12:41;;;;;;;8.23;3.60;;;;;;;;;;5040510;28;20032;-64
2022/03/05 04:15:07;;;;;;;8.73;2.55;;;;;;;;;;5050797;28;20029;-64
2022/03/05 04:17:33;;;;;;;13.13;1.95;;;;;;;;;;5050128;28;20025;-64
2022/03/05 04:20:00;;;;;;;6.70;1.40;;;;;;;;;;5050993;28;20036;-64
2022/03/05 04:22:26;;;;;;;10.55;1.80;;;;;;;;;;5050965;28;20447;-64
2022/03/05 04:24:52;;;;;;;9.55;2.05;;;;;;;;;;5051956;28;20028;-64
2022/03/05 04:27:18;;;;;;;6.78;1.38;;;;;;;;;;5035300;28;20029;-64
2022/03/05 04:29:44;;;;;;;7.60;1.65;;;;;;;;;;5038380;28;20027;-64
2022/03/05 04:32:10;;;;;;;6.18;1.20;;;;;;;;;;5048808;28;20025;-64
2022/03/05 04:34:36;;;;;;;6.85;1.38;;;;;;;;;;5051889;28;20473;-64
2022/03/05 04:37:03;;;;;;;9.77;1.77;;;;;;;;;;5052060;28;20032;-64
2022/03/05 04:39:30;;;;;;;5.90;1.45;;;;;;;;;;5051416;28;20474;-64
2022/03/05 04:41:56;;;;;;;5.45;1.20;;;;;;;;;;5051818;28;20045;-64
2022/03/05 04:44:23;;;;;;;4.13;1.30;;;;;;;;;;5051724;28;20156;-64
2022/03/05 04:46:49;;;;;;;7.32;1.48;;;;;;;;;;5051531;28;20025;-64
2022/03/05 04:49:15;;;;;;;8.30;1.55;;;;;;;;;;5052180;28;20032;-64
2022/03/05 04:51:41;;;;;;;5.85;1.08;;;;;;;;;;5051676;28;20029;-64
2022/03/05 04:54:07;;;;;;;6.95;1.50;;;;;;;;;;5052030;28;20025;-64
2022/03/05 04:56:34;;;;;;;3.30;1.10;;;;;;;;;;5051307;28;20033;-64
2022/03/05 04:59:00;;;;;;;5.85;1.02;;;;;;;;;;5051544;28;20025;-64
2022/03/05 05:01:27;;;;;;;6.85;1.50;;;;;;;;;;5051914;28;20025;-64
2022/03/05 05:03:54;;;;;;;10.02;1.45;;;;;;;;;;5060478;28;20385;-64
2022/03/05 05:06:20;;;;;;;4.47;1.20;;;;;;;;;;5072028;28;20544;-64
2022/03/05 05:08:46;;;;;;;8.23;1.42;;;;;;;;;;5071720;28;20059;-64
2022/03/05 05:11:12;;;;;;;5.68;1.42;;;;;;;;;;5071430;28;20362;-64
2022/03/05 05:13:39;;;;;;;5.88;1.35;;;;;;;;;;5056764;28;20106;-64
2022/03/05 05:16:06;;;;;;;10.23;1.60;;;;;;;;;;5051768;28;20405;-64
2022/03/05 05:18:33;;;;;;;7.50;1.75;;;;;;;;;;5051071;28;20404;-64
2022/03/05 05:20:59;;;;;;;6.38;1.90;;;;;;;;;;5051401;28;20079;-64
2022/03/05 05:23:25;;;;;;;7.47;1.77;;;;;;;;;;5051537;28;20033;-64
2022/03/05 05:25:52;;;;;;;9.43;2.25;;;;;;;;;;5051305;28;20062;-64
2022/03/05 05:28:18;;;;;;;11.40;2.22;;;;;;;;;;5051452;28;20104;-64
2022/03/05 05:30:44;;;;;;;7.72;2.03;;;;;;;;;;5048319;28;20033;-64
2022/03/05 05:33:10;;;;;;;7.88;3.08;;;;;;;;;;5041097;28;20772;-64
2022/03/05 05:35:36;;;;;;;11.90;3.17;;;;;;;;;;5030934;28;20024;-64
2022/03/05 05:38:03;;;;;;;10.38;3.00;;;;;;;;;;5035231;28;20511;-64
2022/03/05 05:40:29;;;;;;;8.80;3.67;;;;;;;;;;5031036;28;20108;-64
2022/03/05 05:42:55;;;;;;;9.38;3.30;;;;;;;;;;5047878;28;20056;-64
2022/03/05 05:45:21;;;;;;;7.97;2.35;;;;;;;;;;5046709;28;20452;-64
2022/03/05 05:47:47;;;;;;;15.77;2.47;;;;;;;;;;5032380;28;20545;-64
2022/03/05 05:50:14;;;;;;;4.93;2.53;;;;;;;;;;5031843;28;20061;-64
2022/03/05 05:52:40;;;;;;;2.55;2.00;;;;;;;;;;5053951;28;20082;-64
2022/03/05 05:55:06;;;;;;;9.85;2.05;;;;;;;;;;5055316;28;20032;-64
2022/03/05 05:57:33;;;;;;;9.63;2.30;;;;;;;;;;5055308;28;20052;-64
2022/03/05 05:59:59;;;;;;;6.78;2.45;;;;;;;;;;5055305;28;20508;-64
2022/03/05 06:02:25;;;;;;;7.95;2.83;;;;;;;;;;5045973;28;20037;-64
2022/03/05 06:04:51;;;;;;;7.07;3.78;;;;;;;;;;5034322;28;20036;-64
2022/03/05 06:07:17;;;;;;;8.45;3.70;;;;;;;;;;5034803;28;20108;-64
2022/03/05 06:09:44;;;;;;;12.00;3.67;;;;;;;;;;5034793;28;20100;-64
2022/03/05 06:12:10;;;;;;;10.10;2.50;;;;;;;;;;5039253;28;20037;-64
2022/03/05 06:14:36;;;;;;;11.93;2.63;;;;;;;;;;5047031;28;20068;-64
2022/03/05 06:17:03;;;;;;;4.40;2.03;;;;;;;;;;5034215;28;20363;-64
2022/03/05 06:19:30;;;;;;;10.30;2.45;;;;;;;;;;5034797;28;20038;-64
2022/03/05 06:21:56;;;;;;;7.68;2.42;;;;;;;;;;5043325;28;20507;-64
2022/03/05 06:24:23;;;;;;;9.43;2.92;;;;;;;;;;5037353;28;20104;-64
2022/03/05 06:26:49;;;;;;;4.85;2.50;;;;;;;;;;5038120;28;20037;-64
2022/03/05 06:29:16;;;;;;;6.82;2.78;;;;;;;;;;5038811;28;20032;-64
2022/03/05 06:31:42;;;;;;;7.75;3.45;;;;;;;;;;5040647;28;20021;-64
2022/03/05 06:34:08;;;;;;;6.28;2.60;;;;;;;;;;5044893;28;20136;-64
2022/03/05 06:36:34;;;;;;;7.63;2.50;;;;;;;;;;5038969;28;20047;-64
2022/03/05 06:39:00;;;;;;;3.85;2.22;;;;;;;;;;5040919;28;20037;-64
2022/03/05 06:41:26;;;;;;;7.15;2.30;;;;;;;;;;5037807;28;20041;-64
2022/03/05 06:43:52;;;;;;;5.93;2.35;;;;;;;;;;5039137;28;20029;-65
2022/03/05 06:46:18;;;;;;;5.88;2.30;;;;;;;;;;5047807;28;20433;-64
2022/03/05 06:48:46;;;;;;;6.93;2.67;;;;;;;;;;5039167;28;20071;-64
2022/03/05 06:51:12;;;;;;;8.65;2.78;;;;;;;;;;5047439;28;20024;-64
2022/03/05 06:53:38;;;;;;;4.38;2.53;;;;;;;;;;5048317;28;20038;-64
2022/03/05 06:56:05;;;;;;;6.20;2.65;;;;;;;;;;5049154;28;20038;-65
2022/03/05 06:58:31;;;;;;;4.97;2.42;;;;;;;;;;5038324;28;20044;-64
2022/03/05 07:00:57;;;;;;;3.95;2.60;;;;;;;;;;5044033;28;20108;-64
2022/03/05 07:03:23;;;;;;;5.80;2.80;;;;;;;;;;5043714;28;20444;-64
2022/03/05 07:05:49;;;;;;;5.63;2.65;;;;;;;;;;5034828;28;20120;-63
2022/03/05 07:08:15;;;;;;;6.32;2.67;;;;;;;;;;5039966;28;20410;-63
2022/03/05 07:10:41;;;;;;;11.18;2.67;;;;;;;;;;5049631;28;20032;-63
2022/03/05 07:13:08;;;;;;;7.43;2.90;;;;;;;;;;5037174;28;20036;-63
2022/03/05 07:15:34;;;;;;;9.40;3.60;;;;;;;;;;5039979;28;20029;-63
2022/03/05 07:18:00;;;;;;;16.90;5.50;;;;;;;;;;5038884;28;20029;-63
2022/03/05 07:20:26;;;;;;;12.23;5.70;;;;;;;;;;5042725;28;20555;-63
2022/03/05 07:22:52;;;;;;;9.68;4.22;;;;;;;;;;5041283;28;20120;-63
2022/03/05 07:25:18;;;;;;;8.82;4.22;;;;;;;;;;5039640;28;20048;-63
2022/03/05 07:27:44;;;;;;;7.88;3.72;;;;;;;;;;5044729;28;20021;-64
2022/03/05 07:30:11;;;;;;;9.02;4.15;;;;;;;;;;5047762;28;20034;-63
2022/03/05 07:32:37;;;;;;;8.38;3.22;;;;;;;;;;5040823;28;20032;-64
2022/03/05 07:35:04;;;;;;;6.82;3.20;;;;;;;;;;5043458;28;20021;-69
2022/03/05 07:37:30;;;;;;;7.85;3.20;;;;;;;;;;5040399;28;20025;-63
2022/03/05 07:39:57;;;;;;;7.00;3.00;;;;;;;;;;5037428;28;20370;-63
2022/03/05 07:42:23;;;;;;;5.85;3.30;;;;;;;;;;5044689;28;20085;-63
2022/03/05 07:44:49;;;;;;;15.38;4.07;;;;;;;;;;5044115;28;20071;-63
2022/03/05 07:47:15;;;;;;;6.82;3.22;;;;;;;;;;5040938;28;20533;-63
2022/03/05 07:49:41;;;;;;;11.90;3.25;;;;;;;;;;5040356;28;20053;-63
2022/03/05 07:52:07;;;;;;;5.20;3.10;;;;;;;;;;5041207;28;20024;-63
2022/03/05 07:54:34;;;;;;;7.40;3.10;;;;;;;;;;5040617;28;20028;-63
2022/03/05 07:57:00;;;;;;;12.85;6.20;;;;;;;;;;5039270;28;20029;-63
2022/03/05 07:59:26;;;;;;;7.88;4.22;;;;;;;;;;5047708;28;20036;-63
2022/03/05 08:01:52;;;;;;;5.20;3.75;;;;;;;;;;5040322;28;20044;-63
2022/03/05 08:04:18;;;;;;;6.10;3.25;;;;;;;;;;5041074;28;20171;-63
2022/03/05 08:06:44;;;;;;;3.97;3.22;;;;;;;;;;5043905;28;20023;-63
2022/03/05 08:09:10;;;;;;;5.57;3.35;;;;;;;;;;5041728;28;20543;-63
2022/03/05 08:11:37;;;;;;;5.53;3.22;;;;;;;;;;5040021;28;20064;-63
2022/03/05 08:14:04;;;;;;;7.57;3.35;;;;;;;;;;5037751;28;20035;-63
2022/03/05 08:16:31;;;;;;;11.80;3.97;;;;;;;;;;5040110;28;20033;-63
2022/03/05 08:18:59;;;;;;;5.70;4.00;;;;;;;;;;5038657;28;20025;-63
2022/03/05 08:21:26;;;;;;;5.82;4.22;;;;;;;;;;5037465;28;20022;-63
2022/03/05 08:23:52;;;;;;;8.68;4.40;;;;;;;;;;5044939;28;20067;-63
2022/03/05 08:26:19;;;;;;;7.00;4.15;;;;;;;;;;5043874;28;20051;-63
2022/03/05 08:28:45;;;;;;;12.57;4.07;;;;;;;;;;5033275;28;20462;-63
2022/03/05 08:31:12;;;;;;;5.40;3.88;;;;;;;;;;5038023;28;20067;-63
2022/03/05 08:33:38;;;;;;;4.25;3.85;;;;;;;;;;5035964;28;20090;-63
2022/03/05 08:36:05;;;;;;;6.00;3.88;;;;;;;;;;5038629;28;20063;-63
2022/03/05 08:38:34;;;;;;;7.70;4.07;;;;;;;;;;5039573;28;20033;-63
2022/03/05 08:41:00;;;;;;;7.10;3.25;;;;;;;;;;5038019;28;20056;-63
2022/03/05 08:43:27;;;;;;;14.85;3.80;;;;;;;;;;5036582;28;20400;-63
2022/03/05 08:45:53;;;;;;;10.68;4.05;;;;;;;;;;5036807;28;20022;-63
2022/03/05 08:48:19;;;;;;;14.90;3.25;;;;;;;;;;5035419;28;20509;-63
2022/03/05 08:50:45;;;;;;;12.82;2.75;;;;;;;;;;5036875;28;20022;-63
2022/03/05 08:53:11;;;;;;;10.00;2.38;;;;;;;;;;5042419;28;20023;-63
2022/03/05 08:55:37;;;;;;;11.60;3.05;;;;;;;;;;5033332;28;20437;-63
2022/03/05 08:58:04;;;;;;;8.40;2.50;;;;;;;;;;5039664;28;20059;-63
2022/03/05 09:00:30;;;;;;;9.40;2.30;;;;;;;;;;5040936;28;20108;-63
2022/03/05 09:02:56;;;;;;;14.32;2.22;;;;;;;;;;5039015;28;20030;-63
2022/03/05 09:05:22;;;;;;;7.20;2.00;;;;;;;;;;5037030;28;20037;-62
2022/03/05 09:07:48;;;;;;;16.63;2.53;;;;;;;;;;5035632;28;20037;-63
2022/03/05 09:10:14;;;;;;;7.93;2.90;;;;;;;;;;5046906;28;20020;-63
2022/03/05 09:12:41;;;;;;;6.13;2.10;;;;;;;;;;5043143;28;20048;-63
2022/03/05 09:15:08;;;;;;;9.05;2.08;;;;;;;;;;5035415;28;20032;-63
2022/03/05 09:17:34;;;;;;;11.35;2.05;;;;;;;;;;5038262;28;20091;-63
2022/03/05 09:20:00;;;;;;;14.70;2.38;;;;;;;;;;5039673;28;20457;-63
2022/03/05 09:22:26;;;;;;;15.48;2.45;;;;;;;;;;5039066;28;20397;-63
2022/03/05 09:24:52;;;;;;;7.13;2.10;;;;;;;;;;5035507;28;20040;-63
2022/03/05 09:27:19;;;;;;;16.92;2.45;;;;;;;;;;5043477;28;20037;-63
2022/03/05 09:29:45;;;;;;;17.30;2.50;;;;;;;;;;5045057;28;20047;-63
2022/03/05 09:32:11;;;;;;;9.63;2.40;;;;;;;;;;5048235;28;20017;-63
2022/03/05 09:34:37;;;;;;;10.52;2.53;;;;;;;;;;5051025;28;20420;-63
2022/03/05 09:37:03;;;;;;;9.32;2.50;;;;;;;;;;5045498;28;20119;-64
2022/03/05 09:39:29;;;;;;;18.67;3.13;;;;;;;;;;5050296;28;20029;-63
2022/03/05 09:41:55;;;;;;;17.45;2.78;;;;;;;;;;5054163;28;20024;-64
2022/03/05 09:44:22;;;;;;;9.02;2.30;;;;;;;;;;5042576;28;20512;-64
2022/03/05 09:46:48;;;;;;;21.10;3.00;;;;;;;;;;5047713;28;20493;-64
2022/03/05 09:49:14;;;;;;;7.30;2.10;;;;;;;;;;5048242;28;20021;-64
2022/03/05 09:51:40;;;;;;;7.35;2.03;;;;;;;;;;5042527;28;20116;-64
2022/03/05 09:54:06;;;;;;;8.55;2.90;;;;;;;;;;5039542;28;20538;-64
2022/03/05 09:56:33;;;;;;;15.30;2.83;;;;;;;;;;5036912;28;20501;-64
2022/03/05 09:58:59;;;;;;;6.10;2.38;;;;;;;;;;5037887;28;20025;-64
2022/03/05 10:01:25;;;;;;;6.40;2.20;;;;;;;;;;5044996;28;20385;-64
2022/03/05 10:03:53;;;;;;;13.20;2.50;;;;;;;;;;5041730;28;20068;-64
2022/03/05 10:06:29;;;;;;;15.38;2.85;;;;;;;;;;5053305;28;20033;-64
2022/03/05 10:08:56;;;;;;;10.00;2.78;;;;;;;;;;5044851;28;20516;-64
2022/03/05 10:11:23;;;;;;;12.32;3.03;;;;;;;;;;5042157;28;20060;-64
2022/03/05 10:13:49;;;;;;;8.38;2.60;;;;;;;;;;5039131;28;20047;-64
2022/03/05 10:16:25;;;;;;;9.75;3.08;;;;;;;;;;5045193;28;20029;-64
2022/03/05 10:18:52;;;;;;;14.23;2.50;;;;;;;;;;5032220;28;20033;-64
2022/03/05 10:21:18;;;;;;;7.38;2.08;;;;;;;;;;5038438;28;20152;-64
2022/03/05 10:23:47;;;;;;;8.00;2.97;;;;;;;;;;5040562;28;20037;-64
2022/03/05 10:26:21;;;;;;;5.68;2.30;;;;;;;;;;5035638;28;20520;-64
2022/03/05 10:28:47;;;;;;;9.93;2.42;;;;;;;;;;5047469;28;20468;-64
2022/03/05 10:31:13;;;;;;;6.38;2.15;;;;;;;;;;5041516;28;20056;-64
2022/03/05 10:33:41;;;;;;;11.25;3.35;;;;;;;;;;5046743;28;20021;-64
2022/03/05 10:36:08;;;;;;;9.32;2.35;;;;;;;;;;5042446;28;20379;-63
2022/03/05 10:38:51;;;;;;;14.48;2.88;;;;;;;;;;5033063;28;20057;-66
2022/03/05 10:41:18;;;;;;;6.30;2.45;;;;;;;;;;5036439;28;20486;-64
2022/03/05 10:43:47;;;;;;;11.95;2.72;;;;;;;;;;5035466;28;20045;-64
2022/03/05 10:46:13;;;;;;;12.07;2.88;;;;;;;;;;5035281;28;20013;-64
2022/03/05 10:48:42;;;;;;;15.60;3.25;;;;;;;;;;5047451;28;20144;-64
2022/03/05 10:51:18;;;;;;;8.35;3.10;;;;;;;;;;5045439;28;20396;-63
2022/03/05 10:53:44;;;;;;;6.82;2.83;;;;;;;;;;5032724;28;20037;-63
2022/03/05 10:56:22;;;;;;;10.75;3.35;;;;;;;;;;5046645;28;20021;-64
2022/03/05 10:59:05;;;;;;;14.30;3.38;;;;;;;;;;5052066;28;20037;-64
2022/03/05 11:01:32;;;;;;;10.77;3.58;;;;;;;;;;5038945;28;20029;-63
2022/03/05 11:03:58;;;;;;;14.60;3.40;;;;;;;;;;5047199;28;20071;-64
2022/03/05 11:06:25;;;;;;;9.52;3.10;;;;;;;;;;5034192;28;20037;-64
2022/03/05 11:08:52;;;;;;;19.25;3.25;;;;;;;;;;5032159;28;20021;-63
2022/03/05 11:11:19;;;;;;;6.93;2.70;;;;;;;;;;5031970;28;20033;-64
2022/03/05 11:13:45;;;;;;;9.60;2.70;;;;;;;;;;5031835;28;20108;-64
2022/03/05 11:16:11;;;;;;;8.00;2.95;;;;;;;;;;5033878;28;20493;-63
2022/03/05 11:18:38;;;;;;;13.23;3.08;;;;;;;;;;5044230;28;20048;-63
2022/03/05 11:21:05;;;;;;;8.85;3.30;;;;;;;;;;5031680;28;20048;-63
2022/03/05 11:23:32;;;;;;;9.35;3.30;;;;;;;;;;5032005;28;20029;-64
2022/03/05 11:25:58;;;;;;;7.82;3.53;;;;;;;;;;5031580;28;20425;-63
2022/03/05 11:28:34;;;;;;;8.18;3.60;;;;;;;;;;5040422;28;20037;-63
2022/03/05 11:31:00;;;;;;;8.23;3.92;;;;;;;;;;5033875;28;20462;-63
2022/03/05 11:33:38;;;;;;;12.93;3.97;;;;;;;;;;5031566;28;20030;-63
2022/03/05 11:36:06;;;;;;;8.23;3.25;;;;;;;;;;5033734;28;20028;-63
2022/03/05 11:38:33;;;;;;;7.88;3.40;;;;;;;;;;5031633;28;20077;-63
2022/03/05 11:40:59;;;;;;;11.27;3.78;;;;;;;;;;5033325;28;20025;-64
2022/03/05 11:43:26;;;;;;;6.78;3.75;;;;;;;;;;5043005;28;20025;-63
2022/03/05 11:45:59;;;;;;;8.05;3.75;;;;;;;;;;5032829;28;20023;-63
2022/03/05 11:48:27;;;;;;;12.32;3.78;;;;;;;;;;5031225;28;20474;-64
2022/03/05 11:50:54;;;;;;;12.90;3.45;;;;;;;;;;5032258;28;20441;-63
2022/03/05 11:53:20;;;;;;;7.60;2.95;;;;;;;;;;5031249;28;20032;-63
2022/03/05 11:55:47;;;;;;;12.27;3.42;;;;;;;;;;5031068;28;20087;-63
2022/03/05 11:58:13;;;;;;;6.22;2.45;;;;;;;;;;5031004;28;20029;-64
2022/03/05 12:00:52;;;;;;;7.13;2.03;;;;;;;;;;5035856;28;20117;-63
2022/03/05 12:03:45;;;;;;;6.75;1.90;;;;;;;;;;5031117;28;20131;-63
2022/03/05 12:06:13;;;;;;;5.95;1.60;;;;;;;;;;5037500;28;20508;-63
2022/03/05 12:08:39;;;;;;;5.25;1.63;;;;;;;;;;5031622;28;20512;-63
2022/03/05 12:11:12;;;;;;;8.88;1.73;;;;;;;;;;5030600;28;20120;-64
2022/03/05 12:13:46;;;;;;;11.68;1.60;;;;;;;;;;5031241;28;20065;-63
2022/03/05 12:16:17;;;;;;;4.25;1.23;;;;;;;;;;5039278;28;20112;-63
2022/03/05 12:18:44;;;;;;;5.45;1.45;;;;;;;;;;5032090;28;20033;-63
2022/03/05 12:21:11;;;;;;;4.65;1.67;;;;;;;;;;5030903;28;20097;-63
2022/03/05 12:23:37;;;;;;;3.10;1.27;;;;;;;;;;5030803;28;20037;-63
2022/03/05 12:26:05;;;;;;;9.82;1.40;;;;;;;;;;5033384;28;20018;-63
2022/03/05 12:28:44;;;;;;;5.00;1.58;;;;;;;;;;5030820;28;20108;-63
2022/03/05 12:31:16;;;;;;;7.80;1.40;;;;;;;;;;5045247;28;20025;-62
2022/03/05 12:33:44;;;;;;;5.13;1.52;;;;;;;;;;5034234;28;20030;-63
2022/03/05 12:36:14;;;;;;;2.30;1.10;;;;;;;;;;5042229;28;20543;-62
2022/03/05 12:38:40;;;;;;;6.50;1.40;;;;;;;;;;5040978;28;21479;-67
2022/03/05 12:41:06;;;;;;;2.78;1.23;;;;;;;;;;5039679;28;20040;-61
2022/03/05 12:43:33;;;;;;;4.35;1.17;;;;;;;;;;5044590;28;20472;-62
2022/03/05 12:45:59;;;;;;;7.10;1.45;;;;;;;;;;5040955;28;20051;-61
2022/03/05 12:48:25;;;;;;;3.78;1.25;;;;;;;;;;5036364;28;20030;-61
2022/03/05 12:50:52;;;;;;;3.17;1.60;;;;;;;;;;5040234;28;20071;-61
2022/03/05 12:53:19;;;;;;;6.55;1.40;;;;;;;;;;5033321;28;20095;-61
2022/03/05 12:55:48;;;;;;;5.50;1.90;;;;;;;;;;5033252;28;20030;-61
2022/03/05 12:58:16;;;;;;;4.57;1.63;;;;;;;;;;5048446;28;20075;-62
2022/03/05 13:00:43;;;;;;;4.10;1.13;;;;;;;;;;5042006;28;20052;-61
2022/03/05 13:03:11;;;;;;;7.50;2.00;;;;;;;;;;5035608;28;20191;-61
2022/03/05 13:05:38;;;;;;;5.40;1.40;;;;;;;;;;5042184;28;20037;-62
2022/03/05 13:08:05;;;;;;;8.15;1.88;;;;;;;;;;5050100;28;20025;-61
2022/03/05 13:10:31;;;;;;;5.85;1.45;;;;;;;;;;5034329;28;20504;-61
2022/03/05 13:12:57;;;;;;;2.85;1.35;;;;;;;;;;5036623;28;20041;-61
2022/03/05 13:15:28;;;;;;;4.40;2.20;;;;;;;;;;5034732;28;20460;-61
2022/03/05 13:17:56;;;;;;;4.90;1.13;;;;;;;;;;5035138;28;20032;-62
2022/03/05 13:20:22;;;;;;;7.05;1.30;;;;;;;;;;5042928;28;20025;-61
2022/03/05 13:22:49;;;;;;;2.80;1.08;;;;;;;;;;5040327;28;20072;-62
2022/03/05 13:25:16;;;;;;;6.55;1.10;;;;;;;;;;5046636;28;20116;-61
2022/03/05 13:27:42;;;;;;;5.93;1.30;;;;;;;;;;5042018;28;20397;-61
2022/03/05 13:30:09;;;;;;;5.80;1.48;;;;;;;;;;5039417;28;20453;-61
2022/03/05 13:32:46;;;;;;;2.75;1.15;;;;;;;;;;5035993;28;20393;-62
2022/03/05 13:35:13;;;;;;;4.60;1.10;;;;;;;;;;5046654;28;20041;-61
2022/03/05 13:37:40;;;;;;;3.13;1.33;;;;;;;;;;5042480;28;20025;-62
2022/03/05 13:40:11;;;;;;;6.95;1.33;;;;;;;;;;5045639;28;20037;-62
2022/03/05 13:42:38;;;;;;;7.97;1.67;;;;;;;;;;5045625;28;20112;-62
2022/03/05 13:45:06;;;;;;;4.82;1.20;;;;;;;;;;5040511;28;20032;-62
2022/03/05 13:47:32;;;;;;;2.72;1.38;;;;;;;;;;5042992;28;20103;-62
2022/03/05 13:50:03;;;;;;;4.15;1.65;;;;;;;;;;5045508;28;20028;-62
2022/03/05 13:52:31;;;;;;;7.47;1.55;;;;;;;;;;5035544;28;20520;-62
2022/03/05 13:55:11;;;;;;;8.65;1.83;;;;;;;;;;5036054;28;20120;-62
2022/03/05 13:57:37;;;;;;;7.43;1.40;;;;;;;;;;5041470;28;20056;-62
2022/03/05 14:00:11;;;;;;;10.85;1.67;;;;;;;;;;5044897;28;20033;-62
2022/03/05 14:02:40;;;;;;;7.57;1.40;;;;;;;;;;5040939;28;20033;-62
2022/03/05 14:05:08;;;;;;;9.43;1.98;;;;;;;;;;5040943;28;20029;-61
2022/03/05 14:07:37;;;;;;;6.90;1.55;;;;;;;;;;5046310;28;20028;-61
2022/03/05 14:10:04;;;;;;;7.60;2.03;;;;;;;;;;5046546;28;20229;-61
2022/03/05 14:12:30;;;;;;;6.88;1.70;;;;;;;;;;5040726;28;20129;-62
2022/03/05 14:15:00;;;;;;;5.93;2.53;;;;;;;;;;5047196;28;20057;-62
2022/03/05 14:17:34;;;;;;;7.80;1.63;;;;;;;;;;5045964;28;20033;-62
2022/03/05 14:20:12;;;;;;;7.43;2.05;;;;;;;;;;5042012;28;20069;-62
2022/03/05 14:22:59;;;;;;;6.40;2.13;;;;;;;;;;5042409;28;20381;-62
2022/03/05 14:25:26;;;;;;;7.95;2.20;;;;;;;;;;5043703;28;20041;-62
2022/03/05 14:27:54;;;;;;;3.65;1.30;;;;;;;;;;5043752;28;20071;-62
2022/03/05 14:30:20;;;;;;;8.50;1.40;;;;;;;;;;5042705;28;20031;-62
2022/03/05 14:32:46;;;;;;;5.32;1.90;;;;;;;;;;5041897;28;20106;-62
2022/03/05 14:35:13;;;;;;;10.13;1.75;;;;;;;;;;5045216;28;20515;-62
2022/03/05 14:37:41;;;;;;;7.40;1.63;;;;;;;;;;5040893;28;20022;-62
2022/03/05 14:40:07;;;;;;;7.57;1.48;;;;;;;;;;5042325;28;20057;-61